sensor_id;sensor_type;location;lat;lon;timestamp;P1;durP1;ratioP1;P2;durP2;ratioP2
70337;SDS011;57757;53.198;19.646;2022-08-23T00:01:58;8.80;;;2.90;;
70337;SDS011;57757;53.198;19.646;2022-08-23T00:04:29;9.50;;;3.10;;
70337;SDS011;57757;53.198;19.646;2022-08-23T00:07:02;8.90;;;3.10;;
70337;SDS011;57757;53.198;19.646;2022-08-23T00:09:32;9.60;;;3.30;;
70337;SDS011;57757;53.198;19.646;2022-08-23T00:12:10;9.50;;;3.00;;
70337;SDS011;57757;53.198;19.646;2022-08-23T00:14:46;8.40;;;2.90;;
70337;SDS011;57757;53.198;19.646;2022-08-23T00:17:18;8.60;;;2.80;;
70337;SDS011;57757;53.198;19.646;2022-08-23T00:20:05;7.50;;;2.60;;
70337;SDS011;57757;53.198;19.646;2022-08-23T00:22:34;7.90;;;3.00;;
70337;SDS011;57757;53.198;19.646;2022-08-23T00:25:04;7.40;;;2.90;;
70337;SDS011;57757;53.198;19.646;2022-08-23T00:27:33;7.60;;;3.30;;
70337;SDS011;57757;53.198;19.646;2022-08-23T00:30:03;7.90;;;3.10;;
70337;SDS011;57757;53.198;19.646;2022-08-23T00:32:33;7.30;;;3.00;;
70337;SDS011;57757;53.198;19.646;2022-08-23T00:35:03;8.70;;;2.90;;
70337;SDS011;57757;53.198;19.646;2022-08-23T00:37:31;9.80;;;3.20;;
70337;SDS011;57757;53.198;19.646;2022-08-23T00:40:00;10.10;;;3.00;;
70337;SDS011;57757;53.198;19.646;2022-08-23T00:45:25;8.90;;;3.40;;
70337;SDS011;57757;53.198;19.646;2022-08-23T00:48:15;13.80;;;3.40;;
70337;SDS011;57757;53.198;19.646;2022-08-23T00:50:45;9.10;;;3.30;;
70337;SDS011;57757;53.198;19.646;2022-08-23T00:53:25;8.40;;;3.40;;
70337;SDS011;57757;53.198;19.646;2022-08-23T00:55:58;7.40;;;3.10;;
70337;SDS011;57757;53.198;19.646;2022-08-23T00:58:29;8.30;;;3.10;;
70337;SDS011;57757;53.198;19.646;2022-08-23T01:00:58;8.90;;;3.30;;
70337;SDS011;57757;53.198;19.646;2022-08-23T01:03:29;8.40;;;3.30;;
70337;SDS011;57757;53.198;19.646;2022-08-23T01:08:51;10.40;;;3.90;;
70337;SDS011;57757;53.198;19.646;2022-08-23T01:11:27;7.70;;;3.10;;
70337;SDS011;57757;53.198;19.646;2022-08-23T01:16:56;8.80;;;3.70;;
70337;SDS011;57757;53.198;19.646;2022-08-23T01:19:37;7.30;;;3.40;;
70337;SDS011;57757;53.198;19.646;2022-08-23T01:22:24;8.60;;;3.50;;
70337;SDS011;57757;53.198;19.646;2022-08-23T01:25:03;8.70;;;3.60;;
70337;SDS011;57757;53.198;19.646;2022-08-23T01:27:36;10.60;;;3.60;;
70337;SDS011;57757;53.198;19.646;2022-08-23T01:30:05;11.10;;;3.30;;
70337;SDS011;57757;53.198;19.646;2022-08-23T01:32:40;7.80;;;3.20;;
70337;SDS011;57757;53.198;19.646;2022-08-23T01:35:12;9.30;;;3.30;;
70337;SDS011;57757;53.198;19.646;2022-08-23T01:37:40;8.30;;;3.50;;
70337;SDS011;57757;53.198;19.646;2022-08-23T01:40:08;9.10;;;3.90;;
70337;SDS011;57757;53.198;19.646;2022-08-23T01:42:36;11.60;;;3.60;;
70337;SDS011;57757;53.198;19.646;2022-08-23T01:45:09;8.90;;;3.70;;
70337;SDS011;57757;53.198;19.646;2022-08-23T01:47:38;8.20;;;3.30;;
70337;SDS011;57757;53.198;19.646;2022-08-23T01:50:07;15.00;;;3.80;;
70337;SDS011;57757;53.198;19.646;2022-08-23T01:52:37;8.90;;;3.20;;
70337;SDS011;57757;53.198;19.646;2022-08-23T01:55:14;11.30;;;3.40;;
70337;SDS011;57757;53.198;19.646;2022-08-23T01:57:43;9.30;;;3.60;;
70337;SDS011;57757;53.198;19.646;2022-08-23T02:00:16;9.90;;;3.70;;
70337;SDS011;57757;53.198;19.646;2022-08-23T02:02:45;8.30;;;3.00;;
70337;SDS011;57757;53.198;19.646;2022-08-23T02:05:13;9.30;;;3.50;;
70337;SDS011;57757;53.198;19.646;2022-08-23T02:07:45;8.40;;;3.50;;
70337;SDS011;57757;53.198;19.646;2022-08-23T02:10:14;8.90;;;3.30;;
70337;SDS011;57757;53.198;19.646;2022-08-23T02:12:42;9.00;;;3.70;;
70337;SDS011;57757;53.198;19.646;2022-08-23T02:15:10;7.50;;;3.60;;
70337;SDS011;57757;53.198;19.646;2022-08-23T02:17:38;11.80;;;3.70;;
70337;SDS011;57757;53.198;19.646;2022-08-23T02:20:06;8.70;;;3.60;;
70337;SDS011;57757;53.198;19.646;2022-08-23T02:22:35;9.40;;;3.50;;
70337;SDS011;57757;53.198;19.646;2022-08-23T02:25:06;7.80;;;3.30;;
70337;SDS011;57757;53.198;19.646;2022-08-23T02:27:34;10.00;;;3.50;;
70337;SDS011;57757;53.198;19.646;2022-08-23T02:30:02;9.90;;;3.90;;
70337;SDS011;57757;53.198;19.646;2022-08-23T02:32:31;8.60;;;3.70;;
70337;SDS011;57757;53.198;19.646;2022-08-23T02:34:58;9.10;;;3.90;;
70337;SDS011;57757;53.198;19.646;2022-08-23T02:37:32;8.90;;;4.20;;
70337;SDS011;57757;53.198;19.646;2022-08-23T02:40:02;9.70;;;3.60;;
70337;SDS011;57757;53.198;19.646;2022-08-23T02:42:32;7.00;;;3.40;;
70337;SDS011;57757;53.198;19.646;2022-08-23T02:44:59;17.70;;;4.10;;
70337;SDS011;57757;53.198;19.646;2022-08-23T02:47:27;7.80;;;3.60;;
70337;SDS011;57757;53.198;19.646;2022-08-23T02:49:54;10.50;;;3.90;;
70337;SDS011;57757;53.198;19.646;2022-08-23T02:52:22;8.30;;;3.80;;
70337;SDS011;57757;53.198;19.646;2022-08-23T02:54:49;8.90;;;3.60;;
70337;SDS011;57757;53.198;19.646;2022-08-23T02:57:19;8.20;;;3.30;;
70337;SDS011;57757;53.198;19.646;2022-08-23T02:59:47;10.00;;;3.50;;
70337;SDS011;57757;53.198;19.646;2022-08-23T03:02:14;8.70;;;3.40;;
70337;SDS011;57757;53.198;19.646;2022-08-23T03:04:42;8.90;;;3.60;;
70337;SDS011;57757;53.198;19.646;2022-08-23T03:07:09;10.60;;;3.90;;
70337;SDS011;57757;53.198;19.646;2022-08-23T03:09:37;9.50;;;3.70;;
70337;SDS011;57757;53.198;19.646;2022-08-23T03:12:04;8.10;;;4.00;;
70337;SDS011;57757;53.198;19.646;2022-08-23T03:14:32;9.90;;;4.20;;
70337;SDS011;57757;53.198;19.646;2022-08-23T03:17:04;8.10;;;3.90;;
70337;SDS011;57757;53.198;19.646;2022-08-23T03:19:34;9.30;;;3.60;;
70337;SDS011;57757;53.198;19.646;2022-08-23T03:22:02;10.80;;;4.00;;
70337;SDS011;57757;53.198;19.646;2022-08-23T03:24:29;9.40;;;3.60;;
70337;SDS011;57757;53.198;19.646;2022-08-23T03:26:57;9.00;;;3.60;;
70337;SDS011;57757;53.198;19.646;2022-08-23T03:29:25;8.50;;;3.70;;
70337;SDS011;57757;53.198;19.646;2022-08-23T03:31:52;10.30;;;3.40;;
70337;SDS011;57757;53.198;19.646;2022-08-23T03:34:20;8.90;;;4.20;;
70337;SDS011;57757;53.198;19.646;2022-08-23T03:36:48;12.30;;;4.10;;
70337;SDS011;57757;53.198;19.646;2022-08-23T03:39:16;10.20;;;4.10;;
70337;SDS011;57757;53.198;19.646;2022-08-23T03:41:43;13.40;;;4.90;;
70337;SDS011;57757;53.198;19.646;2022-08-23T03:44:11;15.20;;;4.60;;
70337;SDS011;57757;53.198;19.646;2022-08-23T03:46:38;12.50;;;5.00;;
70337;SDS011;57757;53.198;19.646;2022-08-23T03:49:06;12.80;;;5.00;;
70337;SDS011;57757;53.198;19.646;2022-08-23T03:51:33;12.60;;;5.20;;
70337;SDS011;57757;53.198;19.646;2022-08-23T03:54:01;13.50;;;5.00;;
70337;SDS011;57757;53.198;19.646;2022-08-23T03:56:31;12.90;;;5.20;;
70337;SDS011;57757;53.198;19.646;2022-08-23T03:59:02;12.30;;;5.50;;
70337;SDS011;57757;53.198;19.646;2022-08-23T04:01:34;10.70;;;4.90;;
70337;SDS011;57757;53.198;19.646;2022-08-23T04:04:03;11.90;;;5.40;;
70337;SDS011;57757;53.198;19.646;2022-08-23T04:06:30;11.70;;;5.20;;
70337;SDS011;57757;53.198;19.646;2022-08-23T04:08:59;15.60;;;5.90;;
70337;SDS011;57757;53.198;19.646;2022-08-23T04:11:27;9.90;;;5.60;;
70337;SDS011;57757;53.198;19.646;2022-08-23T04:13:54;11.70;;;5.60;;
70337;SDS011;57757;53.198;19.646;2022-08-23T04:16:22;15.40;;;5.50;;
70337;SDS011;57757;53.198;19.646;2022-08-23T04:18:49;10.90;;;5.00;;
70337;SDS011;57757;53.198;19.646;2022-08-23T04:21:18;12.00;;;5.60;;
70337;SDS011;57757;53.198;19.646;2022-08-23T04:23:48;13.30;;;5.90;;
70337;SDS011;57757;53.198;19.646;2022-08-23T04:26:16;12.50;;;5.60;;
70337;SDS011;57757;53.198;19.646;2022-08-23T04:28:44;11.30;;;5.80;;
70337;SDS011;57757;53.198;19.646;2022-08-23T04:31:12;10.70;;;6.00;;
70337;SDS011;57757;53.198;19.646;2022-08-23T04:33:41;14.90;;;5.60;;
70337;SDS011;57757;53.198;19.646;2022-08-23T04:36:09;14.00;;;6.40;;
70337;SDS011;57757;53.198;19.646;2022-08-23T04:38:36;9.50;;;5.70;;
70337;SDS011;57757;53.198;19.646;2022-08-23T04:41:04;10.50;;;5.60;;
70337;SDS011;57757;53.198;19.646;2022-08-23T04:43:47;10.40;;;4.90;;
70337;SDS011;57757;53.198;19.646;2022-08-23T04:46:16;12.60;;;5.90;;
70337;SDS011;57757;53.198;19.646;2022-08-23T04:48:44;9.90;;;5.30;;
70337;SDS011;57757;53.198;19.646;2022-08-23T04:51:12;10.00;;;5.60;;
70337;SDS011;57757;53.198;19.646;2022-08-23T04:53:41;10.20;;;5.70;;
70337;SDS011;57757;53.198;19.646;2022-08-23T04:56:08;14.50;;;6.60;;
70337;SDS011;57757;53.198;19.646;2022-08-23T04:58:36;12.40;;;5.80;;
70337;SDS011;57757;53.198;19.646;2022-08-23T05:01:05;10.40;;;5.90;;
70337;SDS011;57757;53.198;19.646;2022-08-23T05:03:35;11.80;;;5.90;;
70337;SDS011;57757;53.198;19.646;2022-08-23T05:06:04;10.90;;;5.70;;
70337;SDS011;57757;53.198;19.646;2022-08-23T05:08:31;11.30;;;6.60;;
70337;SDS011;57757;53.198;19.646;2022-08-23T05:11:01;12.50;;;6.10;;
70337;SDS011;57757;53.198;19.646;2022-08-23T05:13:30;12.30;;;6.50;;
70337;SDS011;57757;53.198;19.646;2022-08-23T05:16:01;12.00;;;5.80;;
70337;SDS011;57757;53.198;19.646;2022-08-23T05:18:29;11.20;;;5.80;;
70337;SDS011;57757;53.198;19.646;2022-08-23T05:20:57;10.40;;;6.20;;
70337;SDS011;57757;53.198;19.646;2022-08-23T05:23:25;11.10;;;6.00;;
70337;SDS011;57757;53.198;19.646;2022-08-23T05:25:58;12.50;;;6.40;;
70337;SDS011;57757;53.198;19.646;2022-08-23T05:28:28;10.80;;;6.60;;
70337;SDS011;57757;53.198;19.646;2022-08-23T05:30:59;12.30;;;6.20;;
70337;SDS011;57757;53.198;19.646;2022-08-23T05:33:37;12.40;;;6.80;;
70337;SDS011;57757;53.198;19.646;2022-08-23T05:36:06;12.10;;;6.50;;
70337;SDS011;57757;53.198;19.646;2022-08-23T05:38:35;14.80;;;6.70;;
70337;SDS011;57757;53.198;19.646;2022-08-23T05:41:04;13.30;;;6.20;;
70337;SDS011;57757;53.198;19.646;2022-08-23T05:43:33;10.60;;;4.60;;
70337;SDS011;57757;53.198;19.646;2022-08-23T05:46:10;8.50;;;3.80;;
70337;SDS011;57757;53.198;19.646;2022-08-23T05:48:41;12.10;;;5.20;;
70337;SDS011;57757;53.198;19.646;2022-08-23T05:51:16;8.50;;;4.20;;
70337;SDS011;57757;53.198;19.646;2022-08-23T05:54:02;13.20;;;5.40;;
70337;SDS011;57757;53.198;19.646;2022-08-23T05:56:33;9.00;;;4.10;;
70337;SDS011;57757;53.198;19.646;2022-08-23T05:59:05;10.70;;;3.80;;
70337;SDS011;57757;53.198;19.646;2022-08-23T06:01:39;11.80;;;4.80;;
70337;SDS011;57757;53.198;19.646;2022-08-23T06:04:08;9.00;;;4.40;;
70337;SDS011;57757;53.198;19.646;2022-08-23T06:06:39;8.10;;;3.70;;
70337;SDS011;57757;53.198;19.646;2022-08-23T06:09:12;8.30;;;4.00;;
70337;SDS011;57757;53.198;19.646;2022-08-23T06:11:42;12.50;;;5.90;;
70337;SDS011;57757;53.198;19.646;2022-08-23T06:14:12;8.70;;;4.10;;
70337;SDS011;57757;53.198;19.646;2022-08-23T06:16:41;12.70;;;7.30;;
70337;SDS011;57757;53.198;19.646;2022-08-23T06:19:12;12.80;;;4.90;;
70337;SDS011;57757;53.198;19.646;2022-08-23T06:21:40;10.50;;;3.90;;
70337;SDS011;57757;53.198;19.646;2022-08-23T06:24:09;10.40;;;5.40;;
70337;SDS011;57757;53.198;19.646;2022-08-23T06:26:40;14.10;;;5.50;;
70337;SDS011;57757;53.198;19.646;2022-08-23T06:29:12;9.50;;;5.50;;
70337;SDS011;57757;53.198;19.646;2022-08-23T06:31:43;15.20;;;6.90;;
70337;SDS011;57757;53.198;19.646;2022-08-23T06:36:46;15.30;;;5.30;;
70337;SDS011;57757;53.198;19.646;2022-08-23T06:39:16;8.60;;;4.60;;
70337;SDS011;57757;53.198;19.646;2022-08-23T06:41:45;9.90;;;5.00;;
70337;SDS011;57757;53.198;19.646;2022-08-23T06:44:16;15.60;;;6.80;;
70337;SDS011;57757;53.198;19.646;2022-08-23T06:46:45;11.30;;;6.80;;
70337;SDS011;57757;53.198;19.646;2022-08-23T06:49:15;14.40;;;6.60;;
70337;SDS011;57757;53.198;19.646;2022-08-23T06:51:44;10.80;;;5.40;;
70337;SDS011;57757;53.198;19.646;2022-08-23T06:54:16;12.70;;;6.20;;
70337;SDS011;57757;53.198;19.646;2022-08-23T06:56:46;10.60;;;5.40;;
70337;SDS011;57757;53.198;19.646;2022-08-23T06:59:16;11.10;;;5.80;;
70337;SDS011;57757;53.198;19.646;2022-08-23T07:04:31;12.70;;;6.00;;
70337;SDS011;57757;53.198;19.646;2022-08-23T07:07:01;12.00;;;6.70;;
70337;SDS011;57757;53.198;19.646;2022-08-23T07:09:36;12.10;;;5.90;;
70337;SDS011;57757;53.198;19.646;2022-08-23T07:12:03;10.50;;;5.60;;
70337;SDS011;57757;53.198;19.646;2022-08-23T07:14:32;10.80;;;5.10;;
70337;SDS011;57757;53.198;19.646;2022-08-23T07:17:02;9.70;;;4.70;;
70337;SDS011;57757;53.198;19.646;2022-08-23T07:19:31;9.60;;;5.10;;
70337;SDS011;57757;53.198;19.646;2022-08-23T07:22:01;12.50;;;5.80;;
70337;SDS011;57757;53.198;19.646;2022-08-23T07:24:31;10.10;;;5.30;;
70337;SDS011;57757;53.198;19.646;2022-08-23T07:27:00;9.00;;;5.10;;
70337;SDS011;57757;53.198;19.646;2022-08-23T07:29:34;11.00;;;5.10;;
70337;SDS011;57757;53.198;19.646;2022-08-23T07:32:03;10.50;;;5.30;;
70337;SDS011;57757;53.198;19.646;2022-08-23T07:34:32;11.90;;;5.10;;
70337;SDS011;57757;53.198;19.646;2022-08-23T07:36:59;9.60;;;5.50;;
70337;SDS011;57757;53.198;19.646;2022-08-23T07:39:27;12.60;;;5.20;;
70337;SDS011;57757;53.198;19.646;2022-08-23T07:41:58;11.00;;;5.50;;
70337;SDS011;57757;53.198;19.646;2022-08-23T07:44:26;11.10;;;5.10;;
70337;SDS011;57757;53.198;19.646;2022-08-23T07:46:55;14.60;;;6.00;;
70337;SDS011;57757;53.198;19.646;2022-08-23T07:49:23;9.50;;;5.50;;
70337;SDS011;57757;53.198;19.646;2022-08-23T07:51:55;9.30;;;5.30;;
70337;SDS011;57757;53.198;19.646;2022-08-23T07:54:25;10.70;;;4.90;;
70337;SDS011;57757;53.198;19.646;2022-08-23T07:56:54;11.70;;;6.40;;
70337;SDS011;57757;53.198;19.646;2022-08-23T07:59:21;11.10;;;6.20;;
70337;SDS011;57757;53.198;19.646;2022-08-23T08:01:49;10.70;;;5.90;;
70337;SDS011;57757;53.198;19.646;2022-08-23T08:04:17;11.40;;;6.30;;
70337;SDS011;57757;53.198;19.646;2022-08-23T08:06:46;11.40;;;6.50;;
70337;SDS011;57757;53.198;19.646;2022-08-23T08:09:36;11.00;;;6.20;;
70337;SDS011;57757;53.198;19.646;2022-08-23T08:12:03;9.50;;;5.60;;
70337;SDS011;57757;53.198;19.646;2022-08-23T08:14:31;9.30;;;5.60;;
70337;SDS011;57757;53.198;19.646;2022-08-23T08:17:02;28.20;;;8.50;;
70337;SDS011;57757;53.198;19.646;2022-08-23T08:19:31;13.70;;;6.60;;
70337;SDS011;57757;53.198;19.646;2022-08-23T08:21:58;13.20;;;6.30;;
70337;SDS011;57757;53.198;19.646;2022-08-23T08:24:25;11.30;;;6.70;;
70337;SDS011;57757;53.198;19.646;2022-08-23T08:26:53;14.40;;;5.90;;
70337;SDS011;57757;53.198;19.646;2022-08-23T08:29:21;12.40;;;6.10;;
70337;SDS011;57757;53.198;19.646;2022-08-23T08:31:48;13.20;;;5.80;;
70337;SDS011;57757;53.198;19.646;2022-08-23T08:34:20;9.90;;;6.00;;
70337;SDS011;57757;53.198;19.646;2022-08-23T08:36:49;12.10;;;5.80;;
70337;SDS011;57757;53.198;19.646;2022-08-23T08:57:37;11.20;;;5.30;;
70337;SDS011;57757;53.198;19.646;2022-08-23T09:00:16;12.90;;;7.00;;
70337;SDS011;57757;53.198;19.646;2022-08-23T09:18:22;11.80;;;6.40;;
70337;SDS011;57757;53.198;19.646;2022-08-23T09:20:51;12.10;;;6.70;;
70337;SDS011;57757;53.198;19.646;2022-08-23T09:23:25;11.10;;;6.70;;
70337;SDS011;57757;53.198;19.646;2022-08-23T09:26:02;13.90;;;6.10;;
70337;SDS011;57757;53.198;19.646;2022-08-23T09:28:53;12.50;;;7.40;;
70337;SDS011;57757;53.198;19.646;2022-08-23T09:34:15;14.30;;;6.10;;
70337;SDS011;57757;53.198;19.646;2022-08-23T09:36:46;12.10;;;6.10;;
70337;SDS011;57757;53.198;19.646;2022-08-23T09:41:59;13.00;;;7.10;;
70337;SDS011;57757;53.198;19.646;2022-08-23T09:47:11;23.80;;;6.70;;
70337;SDS011;57757;53.198;19.646;2022-08-23T09:49:44;12.20;;;5.90;;
70337;SDS011;57757;53.198;19.646;2022-08-23T09:52:19;13.20;;;7.20;;
70337;SDS011;57757;53.198;19.646;2022-08-23T09:54:53;11.60;;;7.10;;
70337;SDS011;57757;53.198;19.646;2022-08-23T09:57:26;12.40;;;7.10;;
70337;SDS011;57757;53.198;19.646;2022-08-23T10:02:54;12.50;;;5.70;;
70337;SDS011;57757;53.198;19.646;2022-08-23T10:05:40;10.10;;;6.00;;
70337;SDS011;57757;53.198;19.646;2022-08-23T10:08:07;15.90;;;7.40;;
70337;SDS011;57757;53.198;19.646;2022-08-23T10:10:38;10.60;;;6.10;;
70337;SDS011;57757;53.198;19.646;2022-08-23T10:13:17;13.00;;;7.10;;
70337;SDS011;57757;53.198;19.646;2022-08-23T10:15:53;11.00;;;6.80;;
70337;SDS011;57757;53.198;19.646;2022-08-23T10:18:39;12.10;;;6.40;;
70337;SDS011;57757;53.198;19.646;2022-08-23T10:21:37;13.00;;;6.80;;
70337;SDS011;57757;53.198;19.646;2022-08-23T10:24:33;12.80;;;7.00;;
70337;SDS011;57757;53.198;19.646;2022-08-23T10:35:55;12.80;;;6.70;;
70337;SDS011;57757;53.198;19.646;2022-08-23T10:38:31;11.30;;;7.30;;
70337;SDS011;57757;53.198;19.646;2022-08-23T10:49:36;11.20;;;6.30;;
70337;SDS011;57757;53.198;19.646;2022-08-23T10:52:06;12.10;;;6.70;;
70337;SDS011;57757;53.198;19.646;2022-08-23T10:54:47;10.70;;;6.80;;
70337;SDS011;57757;53.198;19.646;2022-08-23T10:57:30;10.50;;;6.60;;
70337;SDS011;57757;53.198;19.646;2022-08-23T11:00:05;12.20;;;7.30;;
70337;SDS011;57757;53.198;19.646;2022-08-23T11:02:40;13.70;;;6.80;;
70337;SDS011;57757;53.198;19.646;2022-08-23T11:05:19;10.90;;;6.50;;
70337;SDS011;57757;53.198;19.646;2022-08-23T11:07:59;12.40;;;6.70;;
70337;SDS011;57757;53.198;19.646;2022-08-23T11:13:24;11.10;;;6.50;;
70337;SDS011;57757;53.198;19.646;2022-08-23T11:15:56;10.70;;;6.50;;
70337;SDS011;57757;53.198;19.646;2022-08-23T11:18:45;11.50;;;7.00;;
70337;SDS011;57757;53.198;19.646;2022-08-23T11:46:16;13.60;;;7.10;;
70337;SDS011;57757;53.198;19.646;2022-08-23T11:57:34;12.30;;;7.40;;
70337;SDS011;57757;53.198;19.646;2022-08-23T12:09:11;16.00;;;7.10;;
70337;SDS011;57757;53.198;19.646;2022-08-23T12:19:42;14.60;;;7.50;;
70337;SDS011;57757;53.198;19.646;2022-08-23T12:22:16;11.90;;;7.90;;
70337;SDS011;57757;53.198;19.646;2022-08-23T12:27:39;13.90;;;7.80;;
70337;SDS011;57757;53.198;19.646;2022-08-23T12:30:22;14.50;;;8.10;;
70337;SDS011;57757;53.198;19.646;2022-08-23T12:32:57;12.70;;;7.40;;
70337;SDS011;57757;53.198;19.646;2022-08-23T12:43:57;14.80;;;7.00;;
70337;SDS011;57757;53.198;19.646;2022-08-23T12:49:07;7.50;;;3.50;;
70337;SDS011;57757;53.198;19.646;2022-08-23T12:51:41;18.00;;;5.00;;
70337;SDS011;57757;53.198;19.646;2022-08-23T12:54:16;16.70;;;5.40;;
70337;SDS011;57757;53.198;19.646;2022-08-23T12:56:50;17.40;;;5.70;;
70337;SDS011;57757;53.198;19.646;2022-08-23T13:02:11;15.30;;;4.00;;
70337;SDS011;57757;53.198;19.646;2022-08-23T13:04:46;10.50;;;3.70;;
70337;SDS011;57757;53.198;19.646;2022-08-23T13:07:16;13.50;;;4.50;;
70337;SDS011;57757;53.198;19.646;2022-08-23T13:09:47;12.30;;;4.70;;
70337;SDS011;57757;53.198;19.646;2022-08-23T13:12:21;12.80;;;4.90;;
70337;SDS011;57757;53.198;19.646;2022-08-23T13:14:51;20.90;;;7.00;;
70337;SDS011;57757;53.198;19.646;2022-08-23T13:17:28;14.90;;;7.00;;
70337;SDS011;57757;53.198;19.646;2022-08-23T13:22:34;13.60;;;5.30;;
70337;SDS011;57757;53.198;19.646;2022-08-23T13:27:56;13.60;;;5.90;;
70337;SDS011;57757;53.198;19.646;2022-08-23T13:30:26;13.30;;;6.40;;
70337;SDS011;57757;53.198;19.646;2022-08-23T13:35:47;11.50;;;5.80;;
70337;SDS011;57757;53.198;19.646;2022-08-23T13:38:24;19.20;;;9.90;;
70337;SDS011;57757;53.198;19.646;2022-08-23T13:43:32;16.80;;;7.00;;
70337;SDS011;57757;53.198;19.646;2022-08-23T13:46:09;13.60;;;5.40;;
70337;SDS011;57757;53.198;19.646;2022-08-23T13:51:39;13.30;;;5.70;;
70337;SDS011;57757;53.198;19.646;2022-08-23T13:54:10;14.40;;;5.50;;
70337;SDS011;57757;53.198;19.646;2022-08-23T13:59:19;17.50;;;8.10;;
70337;SDS011;57757;53.198;19.646;2022-08-23T14:01:58;13.80;;;6.00;;
70337;SDS011;57757;53.198;19.646;2022-08-23T14:04:28;10.50;;;4.50;;
70337;SDS011;57757;53.198;19.646;2022-08-23T14:06:56;10.30;;;4.90;;
70337;SDS011;57757;53.198;19.646;2022-08-23T14:09:24;11.20;;;4.90;;
70337;SDS011;57757;53.198;19.646;2022-08-23T14:11:52;13.00;;;5.50;;
70337;SDS011;57757;53.198;19.646;2022-08-23T14:14:24;11.80;;;5.50;;
70337;SDS011;57757;53.198;19.646;2022-08-23T14:16:52;14.30;;;6.60;;
70337;SDS011;57757;53.198;19.646;2022-08-23T14:19:20;14.30;;;7.60;;
70337;SDS011;57757;53.198;19.646;2022-08-23T14:22:08;10.50;;;6.00;;
70337;SDS011;57757;53.198;19.646;2022-08-23T14:24:35;10.90;;;5.30;;
70337;SDS011;57757;53.198;19.646;2022-08-23T14:27:03;16.20;;;10.90;;
70337;SDS011;57757;53.198;19.646;2022-08-23T14:29:31;14.00;;;7.60;;
70337;SDS011;57757;53.198;19.646;2022-08-23T14:31:59;14.80;;;7.90;;
70337;SDS011;57757;53.198;19.646;2022-08-23T14:34:27;11.90;;;6.10;;
70337;SDS011;57757;53.198;19.646;2022-08-23T14:36:56;16.30;;;7.10;;
70337;SDS011;57757;53.198;19.646;2022-08-23T14:39:46;11.80;;;4.30;;
70337;SDS011;57757;53.198;19.646;2022-08-23T14:42:14;10.90;;;4.10;;
70337;SDS011;57757;53.198;19.646;2022-08-23T14:44:45;8.70;;;2.80;;
70337;SDS011;57757;53.198;19.646;2022-08-23T14:47:13;8.90;;;2.60;;
70337;SDS011;57757;53.198;19.646;2022-08-23T14:49:40;6.80;;;2.70;;
70337;SDS011;57757;53.198;19.646;2022-08-23T14:52:08;10.90;;;3.00;;
70337;SDS011;57757;53.198;19.646;2022-08-23T14:54:37;10.70;;;2.70;;
70337;SDS011;57757;53.198;19.646;2022-08-23T14:57:05;10.10;;;3.00;;
70337;SDS011;57757;53.198;19.646;2022-08-23T14:59:32;10.00;;;3.90;;
70337;SDS011;57757;53.198;19.646;2022-08-23T15:02:01;10.50;;;3.40;;
70337;SDS011;57757;53.198;19.646;2022-08-23T15:04:31;10.80;;;3.30;;
70337;SDS011;57757;53.198;19.646;2022-08-23T15:07:02;11.30;;;3.30;;
70337;SDS011;57757;53.198;19.646;2022-08-23T15:09:47;11.00;;;3.10;;
70337;SDS011;57757;53.198;19.646;2022-08-23T15:12:17;11.10;;;3.30;;
70337;SDS011;57757;53.198;19.646;2022-08-23T15:15:07;9.50;;;3.30;;
70337;SDS011;57757;53.198;19.646;2022-08-23T15:20:26;10.40;;;3.90;;
70337;SDS011;57757;53.198;19.646;2022-08-23T15:22:56;9.30;;;3.90;;
70337;SDS011;57757;53.198;19.646;2022-08-23T15:25:25;11.10;;;3.90;;
70337;SDS011;57757;53.198;19.646;2022-08-23T15:27:56;11.20;;;4.00;;
70337;SDS011;57757;53.198;19.646;2022-08-23T15:30:24;10.90;;;3.00;;
70337;SDS011;57757;53.198;19.646;2022-08-23T15:32:56;11.10;;;3.60;;
70337;SDS011;57757;53.198;19.646;2022-08-23T15:35:24;12.10;;;3.50;;
70337;SDS011;57757;53.198;19.646;2022-08-23T15:37:54;10.20;;;3.60;;
70337;SDS011;57757;53.198;19.646;2022-08-23T15:40:23;11.30;;;3.80;;
70337;SDS011;57757;53.198;19.646;2022-08-23T15:42:52;11.30;;;4.00;;
70337;SDS011;57757;53.198;19.646;2022-08-23T15:45:19;11.60;;;4.00;;
70337;SDS011;57757;53.198;19.646;2022-08-23T15:47:54;10.20;;;3.90;;
70337;SDS011;57757;53.198;19.646;2022-08-23T15:50:25;13.50;;;4.40;;
70337;SDS011;57757;53.198;19.646;2022-08-23T15:52:57;9.20;;;4.20;;
70337;SDS011;57757;53.198;19.646;2022-08-23T15:55:27;9.90;;;4.40;;
70337;SDS011;57757;53.198;19.646;2022-08-23T15:57:58;13.00;;;4.00;;
70337;SDS011;57757;53.198;19.646;2022-08-23T16:00:26;12.30;;;4.20;;
70337;SDS011;57757;53.198;19.646;2022-08-23T16:02:53;9.70;;;3.80;;
70337;SDS011;57757;53.198;19.646;2022-08-23T16:05:42;11.40;;;4.20;;
70337;SDS011;57757;53.198;19.646;2022-08-23T16:08:17;12.20;;;4.20;;
70337;SDS011;57757;53.198;19.646;2022-08-23T16:10:51;11.20;;;4.00;;
70337;SDS011;57757;53.198;19.646;2022-08-23T16:13:20;10.90;;;3.90;;
70337;SDS011;57757;53.198;19.646;2022-08-23T16:15:49;11.20;;;3.60;;
70337;SDS011;57757;53.198;19.646;2022-08-23T16:18:17;11.20;;;3.60;;
70337;SDS011;57757;53.198;19.646;2022-08-23T16:20:44;9.50;;;3.70;;
70337;SDS011;57757;53.198;19.646;2022-08-23T16:23:12;10.20;;;3.20;;
70337;SDS011;57757;53.198;19.646;2022-08-23T16:25:40;9.00;;;3.80;;
70337;SDS011;57757;53.198;19.646;2022-08-23T16:28:08;10.50;;;4.80;;
70337;SDS011;57757;53.198;19.646;2022-08-23T16:30:36;11.30;;;4.80;;
70337;SDS011;57757;53.198;19.646;2022-08-23T16:33:04;10.30;;;3.50;;
70337;SDS011;57757;53.198;19.646;2022-08-23T16:35:31;8.60;;;4.90;;
70337;SDS011;57757;53.198;19.646;2022-08-23T16:37:59;8.30;;;3.90;;
70337;SDS011;57757;53.198;19.646;2022-08-23T16:40:26;11.90;;;3.50;;
70337;SDS011;57757;53.198;19.646;2022-08-23T16:42:54;10.20;;;4.20;;
70337;SDS011;57757;53.198;19.646;2022-08-23T16:45:22;12.90;;;5.30;;
70337;SDS011;57757;53.198;19.646;2022-08-23T16:47:52;13.50;;;6.40;;
70337;SDS011;57757;53.198;19.646;2022-08-23T16:50:20;12.10;;;6.20;;
70337;SDS011;57757;53.198;19.646;2022-08-23T16:52:47;12.10;;;4.50;;
70337;SDS011;57757;53.198;19.646;2022-08-23T16:55:15;9.40;;;3.80;;
70337;SDS011;57757;53.198;19.646;2022-08-23T16:57:43;8.90;;;3.70;;
70337;SDS011;57757;53.198;19.646;2022-08-23T17:00:10;8.80;;;3.80;;
70337;SDS011;57757;53.198;19.646;2022-08-23T17:02:39;9.30;;;4.40;;
70337;SDS011;57757;53.198;19.646;2022-08-23T17:05:11;8.70;;;4.00;;
70337;SDS011;57757;53.198;19.646;2022-08-23T17:07:42;11.00;;;4.30;;
70337;SDS011;57757;53.198;19.646;2022-08-23T17:10:10;11.90;;;4.30;;
70337;SDS011;57757;53.198;19.646;2022-08-23T17:12:41;10.10;;;3.90;;
70337;SDS011;57757;53.198;19.646;2022-08-23T17:15:14;9.40;;;3.90;;
70337;SDS011;57757;53.198;19.646;2022-08-23T17:17:47;9.10;;;3.80;;
70337;SDS011;57757;53.198;19.646;2022-08-23T17:20:16;8.20;;;4.30;;
70337;SDS011;57757;53.198;19.646;2022-08-23T17:22:47;9.70;;;3.70;;
70337;SDS011;57757;53.198;19.646;2022-08-23T17:25:15;11.10;;;4.10;;
70337;SDS011;57757;53.198;19.646;2022-08-23T17:27:45;8.20;;;3.90;;
70337;SDS011;57757;53.198;19.646;2022-08-23T17:30:14;11.60;;;4.50;;
70337;SDS011;57757;53.198;19.646;2022-08-23T17:32:44;9.10;;;4.60;;
70337;SDS011;57757;53.198;19.646;2022-08-23T17:35:14;9.30;;;4.40;;